sensor_id;sensor_type;location;lat;lon;timestamp;P1;durP1;ratioP1;P2;durP2;ratioP2
11797;SDS011;5956;51.428;6.682;2023-06-14T00:01:01;6.25;;;5.22;;
11797;SDS011;5956;51.428;6.682;2023-06-14T00:03:28;9.07;;;5.10;;
11797;SDS011;5956;51.428;6.682;2023-06-14T00:05:57;6.57;;;5.32;;
11797;SDS011;5956;51.428;6.682;2023-06-14T00:08:23;7.65;;;5.95;;
11797;SDS011;5956;51.428;6.682;2023-06-14T00:10:50;7.95;;;5.40;;
11797;SDS011;5956;51.428;6.682;2023-06-14T00:13:17;8.55;;;5.30;;
11797;SDS011;5956;51.428;6.682;2023-06-14T00:15:43;6.13;;;5.53;;
11797;SDS011;5956;51.428;6.682;2023-06-14T00:18:11;6.57;;;5.72;;
11797;SDS011;5956;51.428;6.682;2023-06-14T00:20:37;5.55;;;4.45;;
11797;SDS011;5956;51.428;6.682;2023-06-14T00:23:04;6.22;;;5.68;;
11797;SDS011;5956;51.428;6.682;2023-06-14T00:25:31;6.00;;;5.20;;
11797;SDS011;5956;51.428;6.682;2023-06-14T00:27:57;7.00;;;4.95;;
11797;SDS011;5956;51.428;6.682;2023-06-14T00:30:24;7.30;;;5.20;;
11797;SDS011;5956;51.428;6.682;2023-06-14T00:32:50;6.03;;;5.53;;
11797;SDS011;5956;51.428;6.682;2023-06-14T00:35:18;7.57;;;5.47;;
11797;SDS011;5956;51.428;6.682;2023-06-14T00:37:45;6.15;;;5.35;;
11797;SDS011;5956;51.428;6.682;2023-06-14T00:40:11;7.57;;;6.43;;
11797;SDS011;5956;51.428;6.682;2023-06-14T00:42:38;5.80;;;5.25;;
11797;SDS011;5956;51.428;6.682;2023-06-14T00:45:05;8.02;;;5.53;;
11797;SDS011;5956;51.428;6.682;2023-06-14T00:47:31;5.82;;;5.30;;
11797;SDS011;5956;51.428;6.682;2023-06-14T00:49:58;7.30;;;5.25;;
11797;SDS011;5956;51.428;6.682;2023-06-14T00:52:26;6.53;;;5.93;;
11797;SDS011;5956;51.428;6.682;2023-06-14T00:54:52;6.35;;;5.78;;
11797;SDS011;5956;51.428;6.682;2023-06-14T00:57:19;6.43;;;5.82;;
11797;SDS011;5956;51.428;6.682;2023-06-14T00:59:47;6.57;;;5.35;;
11797;SDS011;5956;51.428;6.682;2023-06-14T01:02:15;6.63;;;5.85;;
11797;SDS011;5956;51.428;6.682;2023-06-14T01:04:43;6.25;;;5.65;;
11797;SDS011;5956;51.428;6.682;2023-06-14T01:07:11;5.50;;;5.05;;
11797;SDS011;5956;51.428;6.682;2023-06-14T01:09:44;5.88;;;5.43;;
11797;SDS011;5956;51.428;6.682;2023-06-14T01:12:15;7.78;;;5.90;;
11797;SDS011;5956;51.428;6.682;2023-06-14T01:14:43;6.18;;;5.57;;
11797;SDS011;5956;51.428;6.682;2023-06-14T01:17:10;8.73;;;5.57;;
11797;SDS011;5956;51.428;6.682;2023-06-14T01:19:41;7.43;;;5.53;;
11797;SDS011;5956;51.428;6.682;2023-06-14T01:22:09;6.00;;;5.50;;
11797;SDS011;5956;51.428;6.682;2023-06-14T01:24:37;6.40;;;5.47;;
11797;SDS011;5956;51.428;6.682;2023-06-14T01:27:04;6.03;;;5.45;;
11797;SDS011;5956;51.428;6.682;2023-06-14T01:29:32;6.15;;;5.43;;
11797;SDS011;5956;51.428;6.682;2023-06-14T01:31:58;6.75;;;5.18;;
11797;SDS011;5956;51.428;6.682;2023-06-14T01:34:26;5.80;;;5.28;;
11797;SDS011;5956;51.428;6.682;2023-06-14T01:36:52;5.25;;;4.90;;
11797;SDS011;5956;51.428;6.682;2023-06-14T01:39:20;5.45;;;4.65;;
11797;SDS011;5956;51.428;6.682;2023-06-14T01:41:48;5.68;;;5.20;;
11797;SDS011;5956;51.428;6.682;2023-06-14T01:44:16;6.25;;;5.65;;
11797;SDS011;5956;51.428;6.682;2023-06-14T01:46:42;5.75;;;5.20;;
11797;SDS011;5956;51.428;6.682;2023-06-14T01:49:10;5.68;;;5.05;;
11797;SDS011;5956;51.428;6.682;2023-06-14T01:51:36;5.80;;;5.30;;
11797;SDS011;5956;51.428;6.682;2023-06-14T01:54:03;9.40;;;5.05;;
11797;SDS011;5956;51.428;6.682;2023-06-14T01:56:29;5.97;;;5.00;;
11797;SDS011;5956;51.428;6.682;2023-06-14T01:58:57;5.43;;;5.00;;
11797;SDS011;5956;51.428;6.682;2023-06-14T02:01:24;5.80;;;5.20;;
11797;SDS011;5956;51.428;6.682;2023-06-14T02:03:50;7.07;;;4.88;;
11797;SDS011;5956;51.428;6.682;2023-06-14T02:06:18;5.25;;;4.85;;
11797;SDS011;5956;51.428;6.682;2023-06-14T02:08:45;5.75;;;5.25;;
11797;SDS011;5956;51.428;6.682;2023-06-14T02:11:12;5.80;;;4.75;;
11797;SDS011;5956;51.428;6.682;2023-06-14T02:13:39;5.50;;;4.90;;
11797;SDS011;5956;51.428;6.682;2023-06-14T02:16:07;7.13;;;5.97;;
11797;SDS011;5956;51.428;6.682;2023-06-14T02:18:33;5.55;;;5.07;;
11797;SDS011;5956;51.428;6.682;2023-06-14T02:21:00;7.20;;;5.38;;
11797;SDS011;5956;51.428;6.682;2023-06-14T02:23:26;6.32;;;5.38;;
11797;SDS011;5956;51.428;6.682;2023-06-14T02:25:52;5.55;;;5.00;;
11797;SDS011;5956;51.428;6.682;2023-06-14T02:28:19;5.53;;;4.80;;
11797;SDS011;5956;51.428;6.682;2023-06-14T02:30:45;5.30;;;4.90;;
11797;SDS011;5956;51.428;6.682;2023-06-14T02:33:13;4.80;;;4.43;;
11797;SDS011;5956;51.428;6.682;2023-06-14T02:35:40;5.70;;;4.85;;
11797;SDS011;5956;51.428;6.682;2023-06-14T02:38:06;5.30;;;4.80;;
11797;SDS011;5956;51.428;6.682;2023-06-14T02:40:32;5.82;;;5.05;;
11797;SDS011;5956;51.428;6.682;2023-06-14T02:42:59;6.38;;;5.18;;
11797;SDS011;5956;51.428;6.682;2023-06-14T02:45:27;5.38;;;4.97;;
11797;SDS011;5956;51.428;6.682;2023-06-14T02:47:53;5.53;;;5.00;;
11797;SDS011;5956;51.428;6.682;2023-06-14T02:50:22;5.68;;;5.15;;
11797;SDS011;5956;51.428;6.682;2023-06-14T02:52:49;5.85;;;5.35;;
11797;SDS011;5956;51.428;6.682;2023-06-14T02:55:15;5.60;;;5.10;;
11797;SDS011;5956;51.428;6.682;2023-06-14T02:57:41;5.63;;;5.07;;
11797;SDS011;5956;51.428;6.682;2023-06-14T03:00:09;5.35;;;4.95;;
11797;SDS011;5956;51.428;6.682;2023-06-14T03:02:38;5.95;;;5.28;;
11797;SDS011;5956;51.428;6.682;2023-06-14T03:05:05;5.15;;;4.65;;
11797;SDS011;5956;51.428;6.682;2023-06-14T03:07:33;5.78;;;5.20;;
11797;SDS011;5956;51.428;6.682;2023-06-14T03:10:00;6.50;;;4.53;;
11797;SDS011;5956;51.428;6.682;2023-06-14T03:12:27;8.60;;;5.13;;
11797;SDS011;5956;51.428;6.682;2023-06-14T03:14:54;5.93;;;4.90;;
11797;SDS011;5956;51.428;6.682;2023-06-14T03:17:21;5.25;;;4.72;;
11797;SDS011;5956;51.428;6.682;2023-06-14T03:19:49;4.40;;;4.00;;
11797;SDS011;5956;51.428;6.682;2023-06-14T03:22:15;5.03;;;4.50;;
11797;SDS011;5956;51.428;6.682;2023-06-14T03:24:43;5.93;;;4.63;;
11797;SDS011;5956;51.428;6.682;2023-06-14T03:27:10;5.75;;;4.72;;
11797;SDS011;5956;51.428;6.682;2023-06-14T03:29:37;4.80;;;4.40;;
11797;SDS011;5956;51.428;6.682;2023-06-14T03:32:04;5.45;;;4.80;;
11797;SDS011;5956;51.428;6.682;2023-06-14T03:34:31;5.53;;;4.90;;
11797;SDS011;5956;51.428;6.682;2023-06-14T03:36:57;5.72;;;4.00;;
11797;SDS011;5956;51.428;6.682;2023-06-14T03:39:23;5.68;;;4.78;;
11797;SDS011;5956;51.428;6.682;2023-06-14T03:41:52;4.80;;;4.40;;
11797;SDS011;5956;51.428;6.682;2023-06-14T03:44:18;5.38;;;4.95;;
11797;SDS011;5956;51.428;6.682;2023-06-14T03:46:45;5.07;;;4.32;;
11797;SDS011;5956;51.428;6.682;2023-06-14T03:49:11;6.93;;;4.78;;
11797;SDS011;5956;51.428;6.682;2023-06-14T03:51:38;7.18;;;5.00;;
11797;SDS011;5956;51.428;6.682;2023-06-14T03:54:05;5.30;;;4.50;;
11797;SDS011;5956;51.428;6.682;2023-06-14T03:56:31;6.70;;;4.20;;
11797;SDS011;5956;51.428;6.682;2023-06-14T03:58:59;6.60;;;4.85;;
11797;SDS011;5956;51.428;6.682;2023-06-14T04:01:25;6.78;;;4.70;;
11797;SDS011;5956;51.428;6.682;2023-06-14T04:03:55;7.32;;;4.82;;
11797;SDS011;5956;51.428;6.682;2023-06-14T04:06:21;5.65;;;4.60;;
11797;SDS011;5956;51.428;6.682;2023-06-14T04:08:50;4.50;;;4.20;;
11797;SDS011;5956;51.428;6.682;2023-06-14T04:11:16;5.07;;;4.25;;
11797;SDS011;5956;51.428;6.682;2023-06-14T04:13:43;6.25;;;4.43;;
11797;SDS011;5956;51.428;6.682;2023-06-14T04:16:11;5.18;;;4.05;;
11797;SDS011;5956;51.428;6.682;2023-06-14T04:18:38;8.20;;;4.20;;
11797;SDS011;5956;51.428;6.682;2023-06-14T04:21:04;5.30;;;4.45;;
11797;SDS011;5956;51.428;6.682;2023-06-14T04:23:31;5.25;;;4.47;;
11797;SDS011;5956;51.428;6.682;2023-06-14T04:25:57;6.82;;;4.22;;
11797;SDS011;5956;51.428;6.682;2023-06-14T04:28:27;4.68;;;4.28;;
11797;SDS011;5956;51.428;6.682;2023-06-14T04:30:54;4.80;;;3.83;;
11797;SDS011;5956;51.428;6.682;2023-06-14T04:33:21;5.35;;;3.80;;
11797;SDS011;5956;51.428;6.682;2023-06-14T04:35:50;6.20;;;4.25;;
11797;SDS011;5956;51.428;6.682;2023-06-14T04:38:18;7.45;;;4.25;;
11797;SDS011;5956;51.428;6.682;2023-06-14T04:40:50;7.90;;;4.25;;
11797;SDS011;5956;51.428;6.682;2023-06-14T04:43:18;4.60;;;4.18;;
11797;SDS011;5956;51.428;6.682;2023-06-14T04:45:50;6.15;;;4.45;;
11797;SDS011;5956;51.428;6.682;2023-06-14T04:48:17;5.30;;;4.10;;
11797;SDS011;5956;51.428;6.682;2023-06-14T04:50:46;6.38;;;4.05;;
11797;SDS011;5956;51.428;6.682;2023-06-14T04:53:12;6.43;;;4.00;;
11797;SDS011;5956;51.428;6.682;2023-06-14T04:55:40;7.00;;;4.07;;
11797;SDS011;5956;51.428;6.682;2023-06-14T04:58:10;5.35;;;4.13;;
11797;SDS011;5956;51.428;6.682;2023-06-14T05:00:37;4.55;;;3.60;;
11797;SDS011;5956;51.428;6.682;2023-06-14T05:03:04;5.57;;;3.78;;
11797;SDS011;5956;51.428;6.682;2023-06-14T05:05:31;4.45;;;4.07;;
11797;SDS011;5956;51.428;6.682;2023-06-14T05:07:59;5.88;;;4.10;;
11797;SDS011;5956;51.428;6.682;2023-06-14T05:10:26;5.18;;;4.13;;
11797;SDS011;5956;51.428;6.682;2023-06-14T05:12:52;9.60;;;4.00;;
11797;SDS011;5956;51.428;6.682;2023-06-14T05:15:19;4.18;;;3.78;;
11797;SDS011;5956;51.428;6.682;2023-06-14T05:17:50;7.05;;;3.53;;
11797;SDS011;5956;51.428;6.682;2023-06-14T05:20:20;5.78;;;3.85;;
11797;SDS011;5956;51.428;6.682;2023-06-14T05:22:48;4.43;;;4.03;;
11797;SDS011;5956;51.428;6.682;2023-06-14T05:25:16;5.93;;;4.30;;
11797;SDS011;5956;51.428;6.682;2023-06-14T05:27:43;10.73;;;4.55;;
11797;SDS011;5956;51.428;6.682;2023-06-14T05:30:10;6.95;;;4.28;;
11797;SDS011;5956;51.428;6.682;2023-06-14T05:32:36;5.43;;;3.90;;
11797;SDS011;5956;51.428;6.682;2023-06-14T05:35:03;5.40;;;3.67;;
11797;SDS011;5956;51.428;6.682;2023-06-14T05:37:31;8.93;;;4.38;;
11797;SDS011;5956;51.428;6.682;2023-06-14T05:39:57;7.05;;;4.13;;
11797;SDS011;5956;51.428;6.682;2023-06-14T05:42:25;7.07;;;4.20;;
11797;SDS011;5956;51.428;6.682;2023-06-14T05:44:51;4.78;;;3.58;;
11797;SDS011;5956;51.428;6.682;2023-06-14T05:47:18;6.50;;;3.63;;
11797;SDS011;5956;51.428;6.682;2023-06-14T05:49:44;6.07;;;4.30;;
11797;SDS011;5956;51.428;6.682;2023-06-14T05:52:11;10.45;;;4.85;;
11797;SDS011;5956;51.428;6.682;2023-06-14T05:54:38;6.57;;;4.25;;
11797;SDS011;5956;51.428;6.682;2023-06-14T05:57:05;5.32;;;4.22;;
11797;SDS011;5956;51.428;6.682;2023-06-14T05:59:33;11.95;;;4.18;;
11797;SDS011;5956;51.428;6.682;2023-06-14T06:02:00;5.40;;;4.22;;
11797;SDS011;5956;51.428;6.682;2023-06-14T06:04:27;7.43;;;4.22;;
11797;SDS011;5956;51.428;6.682;2023-06-14T06:06:53;3.67;;;3.38;;
11797;SDS011;5956;51.428;6.682;2023-06-14T06:09:19;6.68;;;3.92;;
11797;SDS011;5956;51.428;6.682;2023-06-14T06:11:46;5.00;;;3.88;;
11797;SDS011;5956;51.428;6.682;2023-06-14T06:14:12;5.20;;;3.97;;
11797;SDS011;5956;51.428;6.682;2023-06-14T06:16:40;4.10;;;3.80;;
11797;SDS011;5956;51.428;6.682;2023-06-14T06:19:07;6.57;;;3.95;;
11797;SDS011;5956;51.428;6.682;2023-06-14T06:21:33;8.40;;;3.60;;
11797;SDS011;5956;51.428;6.682;2023-06-14T06:23:59;9.77;;;3.92;;
11797;SDS011;5956;51.428;6.682;2023-06-14T06:26:28;4.38;;;3.90;;
11797;SDS011;5956;51.428;6.682;2023-06-14T06:28:55;7.20;;;4.32;;
11797;SDS011;5956;51.428;6.682;2023-06-14T06:31:22;9.55;;;4.15;;
11797;SDS011;5956;51.428;6.682;2023-06-14T06:33:50;4.07;;;3.45;;
11797;SDS011;5956;51.428;6.682;2023-06-14T06:36:16;4.10;;;3.70;;
11797;SDS011;5956;51.428;6.682;2023-06-14T06:38:43;3.67;;;3.38;;
11797;SDS011;5956;51.428;6.682;2023-06-14T06:41:09;8.85;;;3.40;;
11797;SDS011;5956;51.428;6.682;2023-06-14T06:43:36;5.47;;;3.38;;
11797;SDS011;5956;51.428;6.682;2023-06-14T06:46:02;4.75;;;3.58;;
11797;SDS011;5956;51.428;6.682;2023-06-14T06:48:29;5.65;;;3.30;;
11797;SDS011;5956;51.428;6.682;2023-06-14T06:50:57;4.75;;;3.40;;
11797;SDS011;5956;51.428;6.682;2023-06-14T06:53:23;5.20;;;3.78;;
11797;SDS011;5956;51.428;6.682;2023-06-14T06:55:50;3.90;;;3.60;;
11797;SDS011;5956;51.428;6.682;2023-06-14T06:58:16;3.97;;;3.50;;
11797;SDS011;5956;51.428;6.682;2023-06-14T07:00:43;3.33;;;2.70;;
11797;SDS011;5956;51.428;6.682;2023-06-14T07:03:09;6.03;;;3.28;;
11797;SDS011;5956;51.428;6.682;2023-06-14T07:05:36;2.88;;;2.67;;
11797;SDS011;5956;51.428;6.682;2023-06-14T07:08:04;3.63;;;2.80;;
11797;SDS011;5956;51.428;6.682;2023-06-14T07:10:31;3.28;;;2.70;;
11797;SDS011;5956;51.428;6.682;2023-06-14T07:12:57;5.57;;;2.67;;
11797;SDS011;5956;51.428;6.682;2023-06-14T07:15:24;3.10;;;2.72;;
11797;SDS011;5956;51.428;6.682;2023-06-14T07:17:50;2.90;;;2.45;;
11797;SDS011;5956;51.428;6.682;2023-06-14T07:20:18;3.75;;;2.20;;
11797;SDS011;5956;51.428;6.682;2023-06-14T07:22:47;2.50;;;2.35;;
11797;SDS011;5956;51.428;6.682;2023-06-14T07:25:14;3.05;;;2.13;;
11797;SDS011;5956;51.428;6.682;2023-06-14T07:27:45;2.95;;;2.30;;
11797;SDS011;5956;51.428;6.682;2023-06-14T07:30:12;2.17;;;2.08;;
11797;SDS011;5956;51.428;6.682;2023-06-14T07:32:39;5.95;;;2.08;;
11797;SDS011;5956;51.428;6.682;2023-06-14T07:35:06;3.97;;;1.98;;
11797;SDS011;5956;51.428;6.682;2023-06-14T07:37:33;2.72;;;2.45;;
11797;SDS011;5956;51.428;6.682;2023-06-14T07:40:00;4.13;;;2.35;;
11797;SDS011;5956;51.428;6.682;2023-06-14T07:42:30;4.22;;;2.67;;
11797;SDS011;5956;51.428;6.682;2023-06-14T07:44:56;2.60;;;2.25;;
11797;SDS011;5956;51.428;6.682;2023-06-14T07:47:23;4.95;;;2.40;;
11797;SDS011;5956;51.428;6.682;2023-06-14T07:49:50;2.85;;;2.10;;
11797;SDS011;5956;51.428;6.682;2023-06-14T07:52:17;2.33;;;2.13;;
11797;SDS011;5956;51.428;6.682;2023-06-14T07:54:43;2.30;;;2.00;;
11797;SDS011;5956;51.428;6.682;2023-06-14T07:57:09;5.07;;;2.15;;
11797;SDS011;5956;51.428;6.682;2023-06-14T07:59:37;3.95;;;1.98;;
11797;SDS011;5956;51.428;6.682;2023-06-14T08:02:04;2.13;;;1.95;;
11797;SDS011;5956;51.428;6.682;2023-06-14T08:04:31;2.83;;;2.47;;
11797;SDS011;5956;51.428;6.682;2023-06-14T08:06:57;2.53;;;1.95;;
11797;SDS011;5956;51.428;6.682;2023-06-14T08:09:24;4.22;;;2.35;;
11797;SDS011;5956;51.428;6.682;2023-06-14T08:11:52;2.28;;;2.17;;
11797;SDS011;5956;51.428;6.682;2023-06-14T08:14:19;4.68;;;2.15;;
11797;SDS011;5956;51.428;6.682;2023-06-14T08:16:47;3.17;;;2.30;;
11797;SDS011;5956;51.428;6.682;2023-06-14T08:19:13;4.28;;;2.47;;
11797;SDS011;5956;51.428;6.682;2023-06-14T08:21:41;6.07;;;2.70;;
11797;SDS011;5956;51.428;6.682;2023-06-14T08:24:10;2.35;;;2.15;;
11797;SDS011;5956;51.428;6.682;2023-06-14T08:26:37;3.45;;;2.10;;
11797;SDS011;5956;51.428;6.682;2023-06-14T08:29:04;3.85;;;2.30;;
11797;SDS011;5956;51.428;6.682;2023-06-14T08:31:32;3.13;;;2.25;;
11797;SDS011;5956;51.428;6.682;2023-06-14T08:33:59;4.78;;;2.30;;
11797;SDS011;5956;51.428;6.682;2023-06-14T08:36:26;2.38;;;2.20;;
11797;SDS011;5956;51.428;6.682;2023-06-14T08:38:52;5.18;;;2.65;;
11797;SDS011;5956;51.428;6.682;2023-06-14T08:41:20;5.00;;;2.50;;
11797;SDS011;5956;51.428;6.682;2023-06-14T08:43:47;4.40;;;2.88;;
11797;SDS011;5956;51.428;6.682;2023-06-14T08:46:13;3.53;;;2.15;;
11797;SDS011;5956;51.428;6.682;2023-06-14T08:48:43;5.03;;;2.33;;
11797;SDS011;5956;51.428;6.682;2023-06-14T08:51:11;5.47;;;2.10;;
11797;SDS011;5956;51.428;6.682;2023-06-14T08:53:41;2.33;;;2.13;;
11797;SDS011;5956;51.428;6.682;2023-06-14T08:56:09;2.63;;;2.35;;
11797;SDS011;5956;51.428;6.682;2023-06-14T08:58:39;3.20;;;2.20;;
11797;SDS011;5956;51.428;6.682;2023-06-14T09:01:08;3.22;;;2.20;;
11797;SDS011;5956;51.428;6.682;2023-06-14T09:03:37;2.53;;;2.15;;
11797;SDS011;5956;51.428;6.682;2023-06-14T09:06:06;2.55;;;2.30;;
11797;SDS011;5956;51.428;6.682;2023-06-14T09:08:35;2.60;;;2.38;;
11797;SDS011;5956;51.428;6.682;2023-06-14T09:11:01;2.10;;;1.90;;
11797;SDS011;5956;51.428;6.682;2023-06-14T09:13:28;5.75;;;2.25;;
11797;SDS011;5956;51.428;6.682;2023-06-14T09:15:54;3.58;;;2.10;;
11797;SDS011;5956;51.428;6.682;2023-06-14T09:18:21;2.70;;;2.50;;
11797;SDS011;5956;51.428;6.682;2023-06-14T09:20:48;6.78;;;2.72;;
11797;SDS011;5956;51.428;6.682;2023-06-14T09:23:14;5.05;;;2.53;;
11797;SDS011;5956;51.428;6.682;2023-06-14T09:25:47;4.90;;;2.63;;
11797;SDS011;5956;51.428;6.682;2023-06-14T09:28:14;2.70;;;2.33;;
11797;SDS011;5956;51.428;6.682;2023-06-14T09:30:40;6.38;;;3.08;;
11797;SDS011;5956;51.428;6.682;2023-06-14T09:33:07;3.33;;;2.40;;
11797;SDS011;5956;51.428;6.682;2023-06-14T09:35:33;2.80;;;2.60;;
11797;SDS011;5956;51.428;6.682;2023-06-14T09:38:00;3.22;;;2.30;;
11797;SDS011;5956;51.428;6.682;2023-06-14T09:40:26;2.70;;;1.92;;
11797;SDS011;5956;51.428;6.682;2023-06-14T09:42:54;4.25;;;2.30;;
11797;SDS011;5956;51.428;6.682;2023-06-14T09:45:22;3.85;;;2.05;;
11797;SDS011;5956;51.428;6.682;2023-06-14T09:47:50;3.30;;;2.47;;
11797;SDS011;5956;51.428;6.682;2023-06-14T09:50:16;2.75;;;2.10;;
11797;SDS011;5956;51.428;6.682;2023-06-14T09:52:43;3.97;;;1.95;;
11797;SDS011;5956;51.428;6.682;2023-06-14T09:55:12;3.70;;;1.90;;
11797;SDS011;5956;51.428;6.682;2023-06-14T09:57:39;4.03;;;1.77;;
11797;SDS011;5956;51.428;6.682;2023-06-14T10:00:09;2.17;;;1.83;;
11797;SDS011;5956;51.428;6.682;2023-06-14T10:02:37;2.08;;;1.85;;
11797;SDS011;5956;51.428;6.682;2023-06-14T10:05:04;3.33;;;2.00;;
11797;SDS011;5956;51.428;6.682;2023-06-14T10:07:32;2.17;;;1.98;;
11797;SDS011;5956;51.428;6.682;2023-06-14T10:10:00;2.03;;;1.88;;
11797;SDS011;5956;51.428;6.682;2023-06-14T10:12:27;2.47;;;1.75;;
11797;SDS011;5956;51.428;6.682;2023-06-14T10:14:53;3.65;;;1.85;;
11797;SDS011;5956;51.428;6.682;2023-06-14T10:17:27;2.10;;;1.90;;
11797;SDS011;5956;51.428;6.682;2023-06-14T10:20:02;2.15;;;1.70;;
11797;SDS011;5956;51.428;6.682;2023-06-14T10:22:30;2.25;;;1.63;;
11797;SDS011;5956;51.428;6.682;2023-06-14T10:24:58;2.30;;;1.55;;
11797;SDS011;5956;51.428;6.682;2023-06-14T10:27:25;2.47;;;1.55;;
11797;SDS011;5956;51.428;6.682;2023-06-14T10:30:05;3.25;;;1.50;;
11797;SDS011;5956;51.428;6.682;2023-06-14T10:32:33;3.38;;;1.90;;
11797;SDS011;5956;51.428;6.682;2023-06-14T10:35:00;8.02;;;2.30;;
11797;SDS011;5956;51.428;6.682;2023-06-14T10:37:27;1.90;;;1.77;;
11797;SDS011;5956;51.428;6.682;2023-06-14T10:39:53;2.53;;;1.70;;
11797;SDS011;5956;51.428;6.682;2023-06-14T10:42:20;2.25;;;2.05;;
11797;SDS011;5956;51.428;6.682;2023-06-14T10:44:49;2.97;;;2.22;;
11797;SDS011;5956;51.428;6.682;2023-06-14T10:50:04;2.20;;;1.73;;
11797;SDS011;5956;51.428;6.682;2023-06-14T10:52:32;3.65;;;1.40;;
11797;SDS011;5956;51.428;6.682;2023-06-14T10:55:04;1.90;;;1.80;;
11797;SDS011;5956;51.428;6.682;2023-06-14T10:57:34;5.20;;;1.73;;
11797;SDS011;5956;51.428;6.682;2023-06-14T11:00:01;2.30;;;1.20;;
11797;SDS011;5956;51.428;6.682;2023-06-14T11:02:46;2.13;;;1.70;;
11797;SDS011;5956;51.428;6.682;2023-06-14T11:05:20;3.17;;;1.38;;
11797;SDS011;5956;51.428;6.682;2023-06-14T11:07:52;1.58;;;1.45;;
11797;SDS011;5956;51.428;6.682;2023-06-14T11:10:24;2.60;;;0.98;;
11797;SDS011;5956;51.428;6.682;2023-06-14T11:12:52;1.15;;;1.15;;
11797;SDS011;5956;51.428;6.682;2023-06-14T11:15:20;2.15;;;1.30;;
11797;SDS011;5956;51.428;6.682;2023-06-14T11:17:53;2.38;;;1.20;;
11797;SDS011;5956;51.428;6.682;2023-06-14T11:20:24;4.82;;;1.25;;
11797;SDS011;5956;51.428;6.682;2023-06-14T11:22:51;1.60;;;1.20;;
11797;SDS011;5956;51.428;6.682;2023-06-14T11:25:17;1.45;;;1.30;;
11797;SDS011;5956;51.428;6.682;2023-06-14T11:27:44;1.20;;;1.20;;
11797;SDS011;5956;51.428;6.682;2023-06-14T11:30:11;1.60;;;1.23;;
11797;SDS011;5956;51.428;6.682;2023-06-14T11:32:37;1.95;;;1.17;;
11797;SDS011;5956;51.428;6.682;2023-06-14T11:35:04;2.80;;;1.20;;
11797;SDS011;5956;51.428;6.682;2023-06-14T11:37:33;1.13;;;1.08;;
11797;SDS011;5956;51.428;6.682;2023-06-14T11:39:59;1.33;;;1.27;;
11797;SDS011;5956;51.428;6.682;2023-06-14T11:42:26;2.70;;;1.55;;
11797;SDS011;5956;51.428;6.682;2023-06-14T11:44:53;1.50;;;1.38;;
11797;SDS011;5956;51.428;6.682;2023-06-14T11:47:20;4.40;;;1.30;;
11797;SDS011;5956;51.428;6.682;2023-06-14T11:49:46;6.40;;;1.92;;
11797;SDS011;5956;51.428;6.682;2023-06-14T11:52:13;2.35;;;1.60;;
11797;SDS011;5956;51.428;6.682;2023-06-14T11:54:41;1.48;;;1.38;;
11797;SDS011;5956;51.428;6.682;2023-06-14T11:57:07;2.88;;;1.52;;
11797;SDS011;5956;51.428;6.682;2023-06-14T11:59:37;1.58;;;1.48;;
11797;SDS011;5956;51.428;6.682;2023-06-14T12:02:04;4.72;;;1.70;;
11797;SDS011;5956;51.428;6.682;2023-06-14T12:04:31;1.50;;;1.40;;
11797;SDS011;5956;51.428;6.682;2023-06-14T12:07:08;1.60;;;1.50;;
11797;SDS011;5956;51.428;6.682;2023-06-14T12:09:41;2.53;;;1.80;;
11797;SDS011;5956;51.428;6.682;2023-06-14T12:12:09;1.90;;;1.80;;
11797;SDS011;5956;51.428;6.682;2023-06-14T12:14:36;1.30;;;1.23;;
11797;SDS011;5956;51.428;6.682;2023-06-14T12:17:06;1.88;;;1.50;;
11797;SDS011;5956;51.428;6.682;2023-06-14T12:19:32;1.65;;;1.27;;
11797;SDS011;5956;51.428;6.682;2023-06-14T12:22:00;2.67;;;1.50;;
11797;SDS011;5956;51.428;6.682;2023-06-14T12:24:29;3.08;;;1.70;;
11797;SDS011;5956;51.428;6.682;2023-06-14T12:26:58;2.25;;;1.58;;
11797;SDS011;5956;51.428;6.682;2023-06-14T12:29:25;3.22;;;1.77;;
11797;SDS011;5956;51.428;6.682;2023-06-14T12:31:51;1.63;;;1.52;;
11797;SDS011;5956;51.428;6.682;2023-06-14T12:34:19;1.60;;;1.48;;
11797;SDS011;5956;51.428;6.682;2023-06-14T12:36:46;2.35;;;1.90;;
11797;SDS011;5956;51.428;6.682;2023-06-14T12:39:12;2.67;;;1.60;;
11797;SDS011;5956;51.428;6.682;2023-06-14T12:41:39;1.52;;;1.45;;
11797;SDS011;5956;51.428;6.682;2023-06-14T12:44:08;1.85;;;1.75;;
11797;SDS011;5956;51.428;6.682;2023-06-14T12:46:35;3.25;;;1.95;;
11797;SDS011;5956;51.428;6.682;2023-06-14T12:49:01;3.42;;;1.85;;
11797;SDS011;5956;51.428;6.682;2023-06-14T12:51:28;3.85;;;1.65;;
11797;SDS011;5956;51.428;6.682;2023-06-14T12:53:54;2.00;;;1.90;;
11797;SDS011;5956;51.428;6.682;2023-06-14T12:56:21;2.63;;;1.77;;
11797;SDS011;5956;51.428;6.682;2023-06-14T12:58:47;2.85;;;1.52;;
11797;SDS011;5956;51.428;6.682;2023-06-14T13:01:15;2.67;;;1.80;;
11797;SDS011;5956;51.428;6.682;2023-06-14T13:03:42;4.55;;;1.80;;
11797;SDS011;5956;51.428;6.682;2023-06-14T13:06:09;1.88;;;1.65;;
11797;SDS011;5956;51.428;6.682;2023-06-14T13:08:35;3.35;;;2.00;;
11797;SDS011;5956;51.428;6.682;2023-06-14T13:11:02;2.58;;;1.80;;
11797;SDS011;5956;51.428;6.682;2023-06-14T13:13:28;2.47;;;2.38;;
11797;SDS011;5956;51.428;6.682;2023-06-14T13:15:54;3.40;;;1.98;;
11797;SDS011;5956;51.428;6.682;2023-06-14T13:18:22;2.35;;;1.95;;
11797;SDS011;5956;51.428;6.682;2023-06-14T13:20:49;3.83;;;2.28;;
11797;SDS011;5956;51.428;6.682;2023-06-14T13:23:15;1.83;;;1.73;;
11797;SDS011;5956;51.428;6.682;2023-06-14T13:25:42;3.10;;;2.15;;
11797;SDS011;5956;51.428;6.682;2023-06-14T13:28:08;2.80;;;2.20;;
11797;SDS011;5956;51.428;6.682;2023-06-14T13:30:35;2.00;;;1.90;;
11797;SDS011;5956;51.428;6.682;2023-06-14T13:33:02;4.90;;;2.35;;
11797;SDS011;5956;51.428;6.682;2023-06-14T13:35:30;2.47;;;2.30;;
11797;SDS011;5956;51.428;6.682;2023-06-14T13:37:56;2.90;;;1.90;;
11797;SDS011;5956;51.428;6.682;2023-06-14T13:40:23;3.97;;;2.10;;
11797;SDS011;5956;51.428;6.682;2023-06-14T13:42:49;2.40;;;2.20;;
11797;SDS011;5956;51.428;6.682;2023-06-14T13:45:16;2.05;;;1.95;;
11797;SDS011;5956;51.428;6.682;2023-06-14T13:47:42;2.72;;;2.17;;
11797;SDS011;5956;51.428;6.682;2023-06-14T13:50:09;2.70;;;2.38;;
11797;SDS011;5956;51.428;6.682;2023-06-14T13:52:37;2.80;;;2.60;;
11797;SDS011;5956;51.428;6.682;2023-06-14T13:55:04;2.40;;;2.20;;
11797;SDS011;5956;51.428;6.682;2023-06-14T13:57:31;2.75;;;2.28;;
11797;SDS011;5956;51.428;6.682;2023-06-14T13:59:58;3.22;;;2.35;;
11797;SDS011;5956;51.428;6.682;2023-06-14T14:02:26;2.47;;;2.28;;
11797;SDS011;5956;51.428;6.682;2023-06-14T14:04:53;2.25;;;2.15;;
11797;SDS011;5956;51.428;6.682;2023-06-14T14:07:20;3.25;;;2.00;;
11797;SDS011;5956;51.428;6.682;2023-06-14T14:09:48;2.72;;;2.53;;
11797;SDS011;5956;51.428;6.682;2023-06-14T14:12:15;2.63;;;2.17;;
11797;SDS011;5956;51.428;6.682;2023-06-14T14:14:41;4.63;;;2.10;;
11797;SDS011;5956;51.428;6.682;2023-06-14T14:17:08;2.55;;;2.42;;
11797;SDS011;5956;51.428;6.682;2023-06-14T14:19:34;5.53;;;2.47;;
11797;SDS011;5956;51.428;6.682;2023-06-14T14:22:01;5.15;;;2.65;;
11797;SDS011;5956;51.428;6.682;2023-06-14T14:24:28;2.38;;;2.08;;
11797;SDS011;5956;51.428;6.682;2023-06-14T14:26:57;4.60;;;2.20;;
11797;SDS011;5956;51.428;6.682;2023-06-14T14:29:25;5.60;;;2.17;;
11797;SDS011;5956;51.428;6.682;2023-06-14T14:31:54;3.22;;;2.38;;
11797;SDS011;5956;51.428;6.682;2023-06-14T14:34:20;2.83;;;2.10;;
11797;SDS011;5956;51.428;6.682;2023-06-14T14:36:47;4.03;;;2.60;;
11797;SDS011;5956;51.428;6.682;2023-06-14T14:39:14;3.85;;;2.05;;
11797;SDS011;5956;51.428;6.682;2023-06-14T14:41:40;2.22;;;2.03;;
11797;SDS011;5956;51.428;6.682;2023-06-14T14:44:08;4.53;;;2.75;;
11797;SDS011;5956;51.428;6.682;2023-06-14T14:46:35;2.50;;;2.30;;
11797;SDS011;5956;51.428;6.682;2023-06-14T14:49:01;4.03;;;2.45;;
11797;SDS011;5956;51.428;6.682;2023-06-14T14:51:28;2.97;;;2.63;;
11797;SDS011;5956;51.428;6.682;2023-06-14T14:53:55;2.17;;;2.05;;
11797;SDS011;5956;51.428;6.682;2023-06-14T14:56:22;2.53;;;2.40;;
11797;SDS011;5956;51.428;6.682;2023-06-14T14:58:48;4.47;;;2.72;;
11797;SDS011;5956;51.428;6.682;2023-06-14T15:01:17;5.22;;;2.70;;
11797;SDS011;5956;51.428;6.682;2023-06-14T15:03:43;2.45;;;2.25;;